sensor_id;sensor_type;location;lat;lon;timestamp;temperature;humidity
59007;DHT22;44792;52.760;6.726;2023-09-19T00:00:20;16.30;99.90
59007;DHT22;44792;52.760;6.726;2023-09-19T00:02:57;16.30;99.90
59007;DHT22;44792;52.760;6.726;2023-09-19T00:05:28;16.20;99.90
59007;DHT22;44792;52.760;6.726;2023-09-19T00:07:57;16.30;99.90
59007;DHT22;44792;52.760;6.726;2023-09-19T00:10:26;16.20;99.90
59007;DHT22;44792;52.760;6.726;2023-09-19T00:12:53;16.10;99.90
59007;DHT22;44792;52.760;6.726;2023-09-19T00:15:23;16.10;99.90
59007;DHT22;44792;52.760;6.726;2023-09-19T00:17:48;16.00;99.90
59007;DHT22;44792;52.760;6.726;2023-09-19T00:20:18;16.00;99.90
59007;DHT22;44792;52.760;6.726;2023-09-19T00:22:44;16.00;99.90
59007;DHT22;44792;52.760;6.726;2023-09-19T00:25:11;16.00;99.90
59007;DHT22;44792;52.760;6.726;2023-09-19T00:27:38;15.80;99.90
59007;DHT22;44792;52.760;6.726;2023-09-19T00:30:08;15.90;99.90
59007;DHT22;44792;52.760;6.726;2023-09-19T00:32:44;15.90;99.90
59007;DHT22;44792;52.760;6.726;2023-09-19T00:35:10;15.80;99.90
59007;DHT22;44792;52.760;6.726;2023-09-19T00:37:36;15.80;99.90
59007;DHT22;44792;52.760;6.726;2023-09-19T00:40:03;15.70;99.90
59007;DHT22;44792;52.760;6.726;2023-09-19T00:42:31;15.70;99.90
59007;DHT22;44792;52.760;6.726;2023-09-19T00:44:57;15.70;99.90
59007;DHT22;44792;52.760;6.726;2023-09-19T00:47:23;15.70;99.90
59007;DHT22;44792;52.760;6.726;2023-09-19T00:49:48;15.80;99.90
59007;DHT22;44792;52.760;6.726;2023-09-19T00:52:18;15.70;99.90
59007;DHT22;44792;52.760;6.726;2023-09-19T00:54:48;15.70;99.90
59007;DHT22;44792;52.760;6.726;2023-09-19T00:57:14;15.70;99.90
59007;DHT22;44792;52.760;6.726;2023-09-19T00:59:41;15.70;99.90
59007;DHT22;44792;52.760;6.726;2023-09-19T01:02:08;15.70;99.90
59007;DHT22;44792;52.760;6.726;2023-09-19T01:04:34;15.60;99.90
59007;DHT22;44792;52.760;6.726;2023-09-19T01:06:59;15.70;99.90
59007;DHT22;44792;52.760;6.726;2023-09-19T01:09:25;15.70;99.90
59007;DHT22;44792;52.760;6.726;2023-09-19T01:11:58;15.70;99.90
59007;DHT22;44792;52.760;6.726;2023-09-19T01:14:45;15.70;99.90
59007;DHT22;44792;52.760;6.726;2023-09-19T01:17:46;15.60;99.90
59007;DHT22;44792;52.760;6.726;2023-09-19T01:20:27;15.60;99.90
59007;DHT22;44792;52.760;6.726;2023-09-19T01:26:04;15.60;99.90
59007;DHT22;44792;52.760;6.726;2023-09-19T01:28:53;15.60;99.90
59007;DHT22;44792;52.760;6.726;2023-09-19T01:31:21;15.50;99.90
59007;DHT22;44792;52.760;6.726;2023-09-19T01:36:34;15.50;99.90
59007;DHT22;44792;52.760;6.726;2023-09-19T01:39:06;15.60;99.90
59007;DHT22;44792;52.760;6.726;2023-09-19T01:42:53;15.50;99.90
59007;DHT22;44792;52.760;6.726;2023-09-19T01:52:42;15.40;99.90
59007;DHT22;44792;52.760;6.726;2023-09-19T01:55:10;15.40;99.90
59007;DHT22;44792;52.760;6.726;2023-09-19T01:57:58;15.40;99.90
59007;DHT22;44792;52.760;6.726;2023-09-19T02:00:27;15.40;99.90
59007;DHT22;44792;52.760;6.726;2023-09-19T02:02:56;15.40;99.90
59007;DHT22;44792;52.760;6.726;2023-09-19T02:05:24;15.30;99.90
59007;DHT22;44792;52.760;6.726;2023-09-19T02:07:51;15.40;99.90
59007;DHT22;44792;52.760;6.726;2023-09-19T02:10:18;15.30;99.90
59007;DHT22;44792;52.760;6.726;2023-09-19T02:12:44;15.30;99.90
59007;DHT22;44792;52.760;6.726;2023-09-19T02:15:11;15.30;99.90
59007;DHT22;44792;52.760;6.726;2023-09-19T02:17:36;15.30;99.90
59007;DHT22;44792;52.760;6.726;2023-09-19T02:20:03;15.30;99.90
59007;DHT22;44792;52.760;6.726;2023-09-19T02:22:36;15.30;99.90
59007;DHT22;44792;52.760;6.726;2023-09-19T02:25:03;15.20;99.90
59007;DHT22;44792;52.760;6.726;2023-09-19T02:27:32;15.20;99.90
59007;DHT22;44792;52.760;6.726;2023-09-19T02:29:58;15.20;99.90
59007;DHT22;44792;52.760;6.726;2023-09-19T02:32:24;15.20;99.90
59007;DHT22;44792;52.760;6.726;2023-09-19T02:34:50;15.10;99.90
59007;DHT22;44792;52.760;6.726;2023-09-19T02:37:17;15.20;99.90
59007;DHT22;44792;52.760;6.726;2023-09-19T02:39:45;15.10;99.90
59007;DHT22;44792;52.760;6.726;2023-09-19T02:42:10;15.10;99.90
59007;DHT22;44792;52.760;6.726;2023-09-19T02:44:36;15.10;99.90
59007;DHT22;44792;52.760;6.726;2023-09-19T02:47:04;15.10;99.90
59007;DHT22;44792;52.760;6.726;2023-09-19T02:49:29;15.10;99.90
59007;DHT22;44792;52.760;6.726;2023-09-19T02:51:55;15.00;99.90
59007;DHT22;44792;52.760;6.726;2023-09-19T02:54:21;15.00;99.90
59007;DHT22;44792;52.760;6.726;2023-09-19T02:56:47;15.00;99.90
59007;DHT22;44792;52.760;6.726;2023-09-19T02:59:13;15.00;99.90
59007;DHT22;44792;52.760;6.726;2023-09-19T03:01:40;15.00;99.90
59007;DHT22;44792;52.760;6.726;2023-09-19T03:04:08;15.00;99.90
59007;DHT22;44792;52.760;6.726;2023-09-19T03:06:37;15.00;99.90
59007;DHT22;44792;52.760;6.726;2023-09-19T03:09:04;15.00;99.90
59007;DHT22;44792;52.760;6.726;2023-09-19T03:11:33;15.00;99.90
59007;DHT22;44792;52.760;6.726;2023-09-19T03:13:58;14.90;99.90
59007;DHT22;44792;52.760;6.726;2023-09-19T03:16:24;14.90;99.90
59007;DHT22;44792;52.760;6.726;2023-09-19T03:18:51;14.90;99.90
59007;DHT22;44792;52.760;6.726;2023-09-19T03:21:17;14.90;99.90
59007;DHT22;44792;52.760;6.726;2023-09-19T03:23:43;14.80;99.90
59007;DHT22;44792;52.760;6.726;2023-09-19T03:26:12;14.90;99.90
59007;DHT22;44792;52.760;6.726;2023-09-19T03:28:38;14.80;99.90
59007;DHT22;44792;52.760;6.726;2023-09-19T03:31:05;14.80;99.90
59007;DHT22;44792;52.760;6.726;2023-09-19T03:33:32;14.90;99.90
59007;DHT22;44792;52.760;6.726;2023-09-19T03:35:58;14.80;99.90
59007;DHT22;44792;52.760;6.726;2023-09-19T03:38:25;14.90;99.90
59007;DHT22;44792;52.760;6.726;2023-09-19T03:40:51;14.90;99.90
59007;DHT22;44792;52.760;6.726;2023-09-19T03:43:17;14.90;99.90
59007;DHT22;44792;52.760;6.726;2023-09-19T03:45:43;14.90;99.90
59007;DHT22;44792;52.760;6.726;2023-09-19T03:48:09;14.90;99.90
59007;DHT22;44792;52.760;6.726;2023-09-19T03:50:35;14.90;99.90
59007;DHT22;44792;52.760;6.726;2023-09-19T03:53:01;14.90;99.90
59007;DHT22;44792;52.760;6.726;2023-09-19T03:55:27;14.90;99.90
59007;DHT22;44792;52.760;6.726;2023-09-19T03:57:53;14.90;99.90
59007;DHT22;44792;52.760;6.726;2023-09-19T04:00:19;14.90;99.90
59007;DHT22;44792;52.760;6.726;2023-09-19T04:02:48;15.00;99.90
59007;DHT22;44792;52.760;6.726;2023-09-19T04:05:13;15.00;99.90
59007;DHT22;44792;52.760;6.726;2023-09-19T04:07:39;15.00;99.90
59007;DHT22;44792;52.760;6.726;2023-09-19T04:10:05;15.00;99.90
59007;DHT22;44792;52.760;6.726;2023-09-19T04:12:34;15.00;99.90
59007;DHT22;44792;52.760;6.726;2023-09-19T04:15:00;15.00;99.90
59007;DHT22;44792;52.760;6.726;2023-09-19T04:17:25;15.10;99.90
59007;DHT22;44792;52.760;6.726;2023-09-19T04:19:51;15.10;99.90
59007;DHT22;44792;52.760;6.726;2023-09-19T04:22:17;15.10;99.90
59007;DHT22;44792;52.760;6.726;2023-09-19T04:24:42;15.00;99.90
59007;DHT22;44792;52.760;6.726;2023-09-19T04:27:08;15.10;99.90
59007;DHT22;44792;52.760;6.726;2023-09-19T04:29:35;15.10;99.90
59007;DHT22;44792;52.760;6.726;2023-09-19T04:32:01;15.00;99.90
59007;DHT22;44792;52.760;6.726;2023-09-19T04:34:29;15.00;99.90
59007;DHT22;44792;52.760;6.726;2023-09-19T04:36:56;15.00;99.90
59007;DHT22;44792;52.760;6.726;2023-09-19T04:39:23;14.90;99.90
59007;DHT22;44792;52.760;6.726;2023-09-19T04:41:51;14.90;99.90
59007;DHT22;44792;52.760;6.726;2023-09-19T04:44:18;14.90;99.90
59007;DHT22;44792;52.760;6.726;2023-09-19T04:46:44;14.90;99.90
59007;DHT22;44792;52.760;6.726;2023-09-19T04:49:11;15.00;99.90
59007;DHT22;44792;52.760;6.726;2023-09-19T04:51:38;15.00;99.90
59007;DHT22;44792;52.760;6.726;2023-09-19T04:54:04;14.90;99.90
59007;DHT22;44792;52.760;6.726;2023-09-19T04:56:29;14.90;99.90
59007;DHT22;44792;52.760;6.726;2023-09-19T04:58:56;14.90;99.90
59007;DHT22;44792;52.760;6.726;2023-09-19T05:01:24;14.90;99.90
59007;DHT22;44792;52.760;6.726;2023-09-19T05:03:49;14.90;99.90
59007;DHT22;44792;52.760;6.726;2023-09-19T05:06:21;14.90;99.90
59007;DHT22;44792;52.760;6.726;2023-09-19T05:08:50;14.90;99.90
59007;DHT22;44792;52.760;6.726;2023-09-19T05:11:20;14.90;99.90
59007;DHT22;44792;52.760;6.726;2023-09-19T05:13:49;14.90;99.90
59007;DHT22;44792;52.760;6.726;2023-09-19T05:16:18;14.90;99.90
59007;DHT22;44792;52.760;6.726;2023-09-19T05:18:44;14.80;99.90
59007;DHT22;44792;52.760;6.726;2023-09-19T05:21:10;14.80;99.90
59007;DHT22;44792;52.760;6.726;2023-09-19T05:23:36;14.80;99.90
59007;DHT22;44792;52.760;6.726;2023-09-19T05:26:02;14.80;99.90
59007;DHT22;44792;52.760;6.726;2023-09-19T05:28:29;14.80;99.90
59007;DHT22;44792;52.760;6.726;2023-09-19T05:30:55;14.70;99.90
59007;DHT22;44792;52.760;6.726;2023-09-19T05:33:21;14.70;99.90
59007;DHT22;44792;52.760;6.726;2023-09-19T05:35:50;14.70;99.90
59007;DHT22;44792;52.760;6.726;2023-09-19T05:38:15;14.70;99.90
59007;DHT22;44792;52.760;6.726;2023-09-19T05:40:45;14.70;99.90
59007;DHT22;44792;52.760;6.726;2023-09-19T05:43:10;14.70;99.90
59007;DHT22;44792;52.760;6.726;2023-09-19T05:45:36;14.70;99.90
59007;DHT22;44792;52.760;6.726;2023-09-19T05:48:13;14.70;99.90
59007;DHT22;44792;52.760;6.726;2023-09-19T05:50:41;14.70;99.90
59007;DHT22;44792;52.760;6.726;2023-09-19T05:53:07;14.60;99.90
59007;DHT22;44792;52.760;6.726;2023-09-19T05:55:33;14.60;99.90
59007;DHT22;44792;52.760;6.726;2023-09-19T05:57:59;14.60;99.90
59007;DHT22;44792;52.760;6.726;2023-09-19T06:00:25;14.60;99.90
59007;DHT22;44792;52.760;6.726;2023-09-19T06:02:56;14.60;99.90
59007;DHT22;44792;52.760;6.726;2023-09-19T06:05:23;14.60;99.90
59007;DHT22;44792;52.760;6.726;2023-09-19T06:07:49;14.60;99.90
59007;DHT22;44792;52.760;6.726;2023-09-19T06:10:16;14.60;99.90
59007;DHT22;44792;52.760;6.726;2023-09-19T06:12:43;14.70;99.90
59007;DHT22;44792;52.760;6.726;2023-09-19T06:15:10;14.70;99.90
59007;DHT22;44792;52.760;6.726;2023-09-19T06:17:41;14.70;99.90
59007;DHT22;44792;52.760;6.726;2023-09-19T06:20:07;14.70;99.90
59007;DHT22;44792;52.760;6.726;2023-09-19T06:22:44;14.70;99.90
59007;DHT22;44792;52.760;6.726;2023-09-19T06:25:11;14.70;99.90
59007;DHT22;44792;52.760;6.726;2023-09-19T06:27:40;14.80;99.90
59007;DHT22;44792;52.760;6.726;2023-09-19T06:30:10;14.80;99.90
59007;DHT22;44792;52.760;6.726;2023-09-19T06:32:41;14.80;99.90
59007;DHT22;44792;52.760;6.726;2023-09-19T06:35:10;14.80;99.90
59007;DHT22;44792;52.760;6.726;2023-09-19T06:37:40;14.80;99.90
59007;DHT22;44792;52.760;6.726;2023-09-19T06:40:13;14.80;99.90
59007;DHT22;44792;52.760;6.726;2023-09-19T06:42:58;14.80;99.90
59007;DHT22;44792;52.760;6.726;2023-09-19T06:45:24;14.80;99.90
59007;DHT22;44792;52.760;6.726;2023-09-19T06:47:52;14.80;99.90
59007;DHT22;44792;52.760;6.726;2023-09-19T06:50:22;14.80;99.90
59007;DHT22;44792;52.760;6.726;2023-09-19T06:52:49;14.70;99.90
59007;DHT22;44792;52.760;6.726;2023-09-19T06:55:16;14.70;99.90
59007;DHT22;44792;52.760;6.726;2023-09-19T06:57:43;14.70;99.90
59007;DHT22;44792;52.760;6.726;2023-09-19T07:00:10;14.70;99.90
59007;DHT22;44792;52.760;6.726;2023-09-19T07:05:22;14.80;99.90
59007;DHT22;44792;52.760;6.726;2023-09-19T07:07:47;14.80;99.90
59007;DHT22;44792;52.760;6.726;2023-09-19T07:10:13;14.90;99.90
59007;DHT22;44792;52.760;6.726;2023-09-19T07:12:39;14.90;99.90
59007;DHT22;44792;52.760;6.726;2023-09-19T07:15:06;15.00;99.90
59007;DHT22;44792;52.760;6.726;2023-09-19T07:17:32;15.00;99.90
59007;DHT22;44792;52.760;6.726;2023-09-19T07:19:59;15.00;99.90
59007;DHT22;44792;52.760;6.726;2023-09-19T07:22:26;15.00;99.90
59007;DHT22;44792;52.760;6.726;2023-09-19T07:24:52;15.00;99.90
59007;DHT22;44792;52.760;6.726;2023-09-19T07:27:18;15.10;99.90
59007;DHT22;44792;52.760;6.726;2023-09-19T07:29:43;15.10;99.90
59007;DHT22;44792;52.760;6.726;2023-09-19T07:32:10;15.10;99.90
59007;DHT22;44792;52.760;6.726;2023-09-19T07:34:37;15.20;99.90
59007;DHT22;44792;52.760;6.726;2023-09-19T07:37:06;15.20;99.90
59007;DHT22;44792;52.760;6.726;2023-09-19T07:39:31;15.20;99.90
59007;DHT22;44792;52.760;6.726;2023-09-19T07:41:57;15.20;99.90
59007;DHT22;44792;52.760;6.726;2023-09-19T07:44:23;15.30;99.90
59007;DHT22;44792;52.760;6.726;2023-09-19T07:46:51;15.30;99.90
59007;DHT22;44792;52.760;6.726;2023-09-19T07:49:17;15.30;99.90
59007;DHT22;44792;52.760;6.726;2023-09-19T07:51:44;15.30;99.90
59007;DHT22;44792;52.760;6.726;2023-09-19T07:54:13;15.50;99.90
59007;DHT22;44792;52.760;6.726;2023-09-19T07:56:40;15.50;99.90
59007;DHT22;44792;52.760;6.726;2023-09-19T07:59:06;15.50;99.90
59007;DHT22;44792;52.760;6.726;2023-09-19T08:01:32;15.60;99.90
59007;DHT22;44792;52.760;6.726;2023-09-19T08:03:58;15.60;99.90
59007;DHT22;44792;52.760;6.726;2023-09-19T08:06:24;15.70;99.90
59007;DHT22;44792;52.760;6.726;2023-09-19T08:08:53;15.70;99.90
59007;DHT22;44792;52.760;6.726;2023-09-19T08:11:20;15.60;99.90
59007;DHT22;44792;52.760;6.726;2023-09-19T08:13:47;15.70;99.90
59007;DHT22;44792;52.760;6.726;2023-09-19T08:16:15;15.70;99.90
59007;DHT22;44792;52.760;6.726;2023-09-19T08:18:41;15.70;99.90
59007;DHT22;44792;52.760;6.726;2023-09-19T08:21:07;15.80;99.90
59007;DHT22;44792;52.760;6.726;2023-09-19T08:23:39;15.80;99.90
59007;DHT22;44792;52.760;6.726;2023-09-19T08:26:05;15.80;99.90
59007;DHT22;44792;52.760;6.726;2023-09-19T08:28:35;15.80;99.90
59007;DHT22;44792;52.760;6.726;2023-09-19T08:31:04;15.80;99.90
59007;DHT22;44792;52.760;6.726;2023-09-19T08:33:34;15.80;99.90
59007;DHT22;44792;52.760;6.726;2023-09-19T08:36:01;15.90;99.90
59007;DHT22;44792;52.760;6.726;2023-09-19T08:38:31;16.00;99.90
59007;DHT22;44792;52.760;6.726;2023-09-19T08:40:59;16.00;99.90
59007;DHT22;44792;52.760;6.726;2023-09-19T08:43:27;16.00;99.90
59007;DHT22;44792;52.760;6.726;2023-09-19T08:46:02;16.00;99.90
59007;DHT22;44792;52.760;6.726;2023-09-19T08:48:30;16.10;99.90
59007;DHT22;44792;52.760;6.726;2023-09-19T08:51:03;16.10;99.90
59007;DHT22;44792;52.760;6.726;2023-09-19T08:53:54;16.20;99.90
59007;DHT22;44792;52.760;6.726;2023-09-19T08:56:17;16.30;99.90
59007;DHT22;44792;52.760;6.726;2023-09-19T08:58:57;16.40;99.90
59007;DHT22;44792;52.760;6.726;2023-09-19T09:01:28;16.50;99.90
59007;DHT22;44792;52.760;6.726;2023-09-19T09:03:55;16.50;99.90
59007;DHT22;44792;52.760;6.726;2023-09-19T09:06:22;16.50;99.90
59007;DHT22;44792;52.760;6.726;2023-09-19T09:08:50;16.50;99.90
59007;DHT22;44792;52.760;6.726;2023-09-19T09:11:17;16.60;99.90
59007;DHT22;44792;52.760;6.726;2023-09-19T09:13:47;16.60;99.90
59007;DHT22;44792;52.760;6.726;2023-09-19T09:16:14;16.70;99.90
59007;DHT22;44792;52.760;6.726;2023-09-19T09:18:42;16.70;99.90
59007;DHT22;44792;52.760;6.726;2023-09-19T09:21:10;16.70;99.90
59007;DHT22;44792;52.760;6.726;2023-09-19T09:23:36;16.70;99.90
59007;DHT22;44792;52.760;6.726;2023-09-19T09:26:01;16.80;99.90
59007;DHT22;44792;52.760;6.726;2023-09-19T09:28:33;16.80;99.90
59007;DHT22;44792;52.760;6.726;2023-09-19T09:31:01;16.90;99.90
59007;DHT22;44792;52.760;6.726;2023-09-19T09:33:34;16.90;99.90
59007;DHT22;44792;52.760;6.726;2023-09-19T09:36:02;16.90;99.90
59007;DHT22;44792;52.760;6.726;2023-09-19T09:38:49;17.00;99.90
59007;DHT22;44792;52.760;6.726;2023-09-19T09:41:16;17.00;99.90
59007;DHT22;44792;52.760;6.726;2023-09-19T09:43:53;17.00;99.90
59007;DHT22;44792;52.760;6.726;2023-09-19T09:46:20;17.00;99.90
59007;DHT22;44792;52.760;6.726;2023-09-19T09:51:40;17.10;99.90
59007;DHT22;44792;52.760;6.726;2023-09-19T09:54:15;17.10;99.90
59007;DHT22;44792;52.760;6.726;2023-09-19T09:59:21;17.20;99.90
59007;DHT22;44792;52.760;6.726;2023-09-19T10:01:49;17.30;99.90
59007;DHT22;44792;52.760;6.726;2023-09-19T10:04:36;17.30;99.90
59007;DHT22;44792;52.760;6.726;2023-09-19T10:07:09;17.30;99.90
59007;DHT22;44792;52.760;6.726;2023-09-19T10:09:46;17.30;99.90
59007;DHT22;44792;52.760;6.726;2023-09-19T10:12:13;17.20;99.90
59007;DHT22;44792;52.760;6.726;2023-09-19T10:14:43;17.30;99.90
59007;DHT22;44792;52.760;6.726;2023-09-19T10:17:13;17.30;99.90
59007;DHT22;44792;52.760;6.726;2023-09-19T10:19:55;17.40;99.90
59007;DHT22;44792;52.760;6.726;2023-09-19T10:22:24;17.40;99.90
59007;DHT22;44792;52.760;6.726;2023-09-19T10:24:53;17.40;99.90
59007;DHT22;44792;52.760;6.726;2023-09-19T10:27:20;17.50;99.90
59007;DHT22;44792;52.760;6.726;2023-09-19T10:29:51;17.50;99.90
59007;DHT22;44792;52.760;6.726;2023-09-19T10:32:21;17.50;99.90
59007;DHT22;44792;52.760;6.726;2023-09-19T10:34:47;17.50;99.90
59007;DHT22;44792;52.760;6.726;2023-09-19T10:37:16;17.50;99.90
59007;DHT22;44792;52.760;6.726;2023-09-19T10:39:46;17.60;99.90
59007;DHT22;44792;52.760;6.726;2023-09-19T10:42:16;17.60;99.90
59007;DHT22;44792;52.760;6.726;2023-09-19T10:44:45;17.60;99.90
59007;DHT22;44792;52.760;6.726;2023-09-19T10:47:13;17.60;99.90
59007;DHT22;44792;52.760;6.726;2023-09-19T10:49:46;17.60;99.90
59007;DHT22;44792;52.760;6.726;2023-09-19T10:52:14;17.60;99.90
59007;DHT22;44792;52.760;6.726;2023-09-19T10:54:51;17.70;99.90
59007;DHT22;44792;52.760;6.726;2023-09-19T10:57:23;17.70;99.90
59007;DHT22;44792;52.760;6.726;2023-09-19T11:00:06;17.70;99.90
59007;DHT22;44792;52.760;6.726;2023-09-19T11:05:36;17.80;99.90
59007;DHT22;44792;52.760;6.726;2023-09-19T11:08:07;17.80;99.90
59007;DHT22;44792;52.760;6.726;2023-09-19T11:10:46;17.80;99.90
59007;DHT22;44792;52.760;6.726;2023-09-19T11:13:29;17.80;99.90
59007;DHT22;44792;52.760;6.726;2023-09-19T11:16:04;17.90;99.90
59007;DHT22;44792;52.760;6.726;2023-09-19T11:26:48;18.00;99.90
59007;DHT22;44792;52.760;6.726;2023-09-19T11:29:28;18.00;99.90
59007;DHT22;44792;52.760;6.726;2023-09-19T11:31:55;18.00;99.90
59007;DHT22;44792;52.760;6.726;2023-09-19T11:40:10;18.10;99.90
59007;DHT22;44792;52.760;6.726;2023-09-19T11:42:45;18.20;99.90
59007;DHT22;44792;52.760;6.726;2023-09-19T11:48:06;18.30;99.90
59007;DHT22;44792;52.760;6.726;2023-09-19T11:50:32;18.30;99.90
59007;DHT22;44792;52.760;6.726;2023-09-19T11:53:00;18.30;99.90
59007;DHT22;44792;52.760;6.726;2023-09-19T11:55:28;18.30;99.90
59007;DHT22;44792;52.760;6.726;2023-09-19T11:57:59;18.30;99.90
59007;DHT22;44792;52.760;6.726;2023-09-19T12:00:25;18.40;99.90
59007;DHT22;44792;52.760;6.726;2023-09-19T12:02:55;18.40;99.90
59007;DHT22;44792;52.760;6.726;2023-09-19T12:05:30;18.40;99.90
59007;DHT22;44792;52.760;6.726;2023-09-19T12:07:56;18.30;99.90
59007;DHT22;44792;52.760;6.726;2023-09-19T12:10:22;18.40;99.90
59007;DHT22;44792;52.760;6.726;2023-09-19T12:12:49;18.30;99.90
59007;DHT22;44792;52.760;6.726;2023-09-19T12:15:17;18.30;99.90
59007;DHT22;44792;52.760;6.726;2023-09-19T12:17:48;18.20;99.90
59007;DHT22;44792;52.760;6.726;2023-09-19T12:20:14;18.30;99.90
59007;DHT22;44792;52.760;6.726;2023-09-19T12:22:45;18.40;99.90
59007;DHT22;44792;52.760;6.726;2023-09-19T12:25:15;18.50;99.90
59007;DHT22;44792;52.760;6.726;2023-09-19T12:27:46;18.50;99.90
59007;DHT22;44792;52.760;6.726;2023-09-19T12:30:13;18.60;99.90
59007;DHT22;44792;52.760;6.726;2023-09-19T12:32:44;18.70;99.90
59007;DHT22;44792;52.760;6.726;2023-09-19T12:35:31;18.70;99.90
59007;DHT22;44792;52.760;6.726;2023-09-19T12:38:00;18.60;99.90
59007;DHT22;44792;52.760;6.726;2023-09-19T12:40:26;18.50;99.90
59007;DHT22;44792;52.760;6.726;2023-09-19T12:42:59;18.50;99.90
59007;DHT22;44792;52.760;6.726;2023-09-19T12:45:26;18.60;99.90
59007;DHT22;44792;52.760;6.726;2023-09-19T12:51:00;18.60;99.90
59007;DHT22;44792;52.760;6.726;2023-09-19T12:53:26;18.60;99.90
59007;DHT22;44792;52.760;6.726;2023-09-19T12:56:00;18.60;99.90
59007;DHT22;44792;52.760;6.726;2023-09-19T12:58:26;18.60;99.90
59007;DHT22;44792;52.760;6.726;2023-09-19T13:00:52;18.60;99.90
59007;DHT22;44792;52.760;6.726;2023-09-19T13:03:26;18.60;99.90
59007;DHT22;44792;52.760;6.726;2023-09-19T13:05:56;18.60;99.90
59007;DHT22;44792;52.760;6.726;2023-09-19T13:08:38;18.60;99.90
59007;DHT22;44792;52.760;6.726;2023-09-19T13:11:14;18.50;99.90
59007;DHT22;44792;52.760;6.726;2023-09-19T13:14:12;18.60;99.90
59007;DHT22;44792;52.760;6.726;2023-09-19T13:19:43;18.50;99.90
59007;DHT22;44792;52.760;6.726;2023-09-19T13:22:39;18.50;99.90
59007;DHT22;44792;52.760;6.726;2023-09-19T13:25:12;18.40;99.90
59007;DHT22;44792;52.760;6.726;2023-09-19T13:27:44;18.40;99.90
59007;DHT22;44792;52.760;6.726;2023-09-19T13:30:11;18.50;99.90
59007;DHT22;44792;52.760;6.726;2023-09-19T13:32:37;18.40;99.90
59007;DHT22;44792;52.760;6.726;2023-09-19T13:35:04;18.40;99.90
59007;DHT22;44792;52.760;6.726;2023-09-19T13:37:32;18.40;99.90
59007;DHT22;44792;52.760;6.726;2023-09-19T13:39:58;18.50;99.90
59007;DHT22;44792;52.760;6.726;2023-09-19T13:42:25;18.40;99.90
59007;DHT22;44792;52.760;6.726;2023-09-19T13:44:55;18.40;99.90
59007;DHT22;44792;52.760;6.726;2023-09-19T13:47:21;18.40;99.90
59007;DHT22;44792;52.760;6.726;2023-09-19T13:49:50;18.40;99.90
59007;DHT22;44792;52.760;6.726;2023-09-19T13:52:20;18.40;99.90
59007;DHT22;44792;52.760;6.726;2023-09-19T13:54:47;18.40;99.90
59007;DHT22;44792;52.760;6.726;2023-09-19T13:57:13;18.40;99.90
59007;DHT22;44792;52.760;6.726;2023-09-19T13:59:39;18.40;99.90
59007;DHT22;44792;52.760;6.726;2023-09-19T14:02:05;18.40;99.90
59007;DHT22;44792;52.760;6.726;2023-09-19T14:04:32;18.50;99.90
59007;DHT22;44792;52.760;6.726;2023-09-19T14:07:00;18.50;99.90
59007;DHT22;44792;52.760;6.726;2023-09-19T14:09:26;18.50;99.90
59007;DHT22;44792;52.760;6.726;2023-09-19T14:11:52;18.50;99.90
59007;DHT22;44792;52.760;6.726;2023-09-19T14:14:21;18.50;99.90
59007;DHT22;44792;52.760;6.726;2023-09-19T14:16:50;18.60;99.90
59007;DHT22;44792;52.760;6.726;2023-09-19T14:19:17;18.50;99.90
59007;DHT22;44792;52.760;6.726;2023-09-19T14:21:43;18.60;99.90
59007;DHT22;44792;52.760;6.726;2023-09-19T14:24:09;18.60;99.90
59007;DHT22;44792;52.760;6.726;2023-09-19T14:26:36;18.60;99.90
59007;DHT22;44792;52.760;6.726;2023-09-19T14:29:02;18.60;99.90
59007;DHT22;44792;52.760;6.726;2023-09-19T14:31:28;18.60;99.90
59007;DHT22;44792;52.760;6.726;2023-09-19T14:33:57;18.70;99.90
59007;DHT22;44792;52.760;6.726;2023-09-19T14:36:25;18.60;99.90
59007;DHT22;44792;52.760;6.726;2023-09-19T14:38:53;18.60;99.90
59007;DHT22;44792;52.760;6.726;2023-09-19T14:41:20;18.60;99.90
59007;DHT22;44792;52.760;6.726;2023-09-19T14:43:46;18.60;99.90
59007;DHT22;44792;52.760;6.726;2023-09-19T14:46:11;18.60;99.90
59007;DHT22;44792;52.760;6.726;2023-09-19T14:48:37;18.60;99.90
59007;DHT22;44792;52.760;6.726;2023-09-19T14:51:04;18.60;99.90
59007;DHT22;44792;52.760;6.726;2023-09-19T14:53:31;18.60;99.90
59007;DHT22;44792;52.760;6.726;2023-09-19T14:55:59;18.50;99.90
59007;DHT22;44792;52.760;6.726;2023-09-19T14:58:25;18.60;99.90
59007;DHT22;44792;52.760;6.726;2023-09-19T15:01:05;18.60;99.90
59007;DHT22;44792;52.760;6.726;2023-09-19T15:03:34;18.60;99.90
59007;DHT22;44792;52.760;6.726;2023-09-19T15:06:05;18.60;99.90
59007;DHT22;44792;52.760;6.726;2023-09-19T15:08:32;18.60;99.90
59007;DHT22;44792;52.760;6.726;2023-09-19T15:11:00;18.60;99.90
59007;DHT22;44792;52.760;6.726;2023-09-19T15:13:30;18.60;99.90
59007;DHT22;44792;52.760;6.726;2023-09-19T15:16:02;18.60;99.90
59007;DHT22;44792;52.760;6.726;2023-09-19T15:18:29;18.60;99.90
59007;DHT22;44792;52.760;6.726;2023-09-19T15:21:02;18.60;99.90
59007;DHT22;44792;52.760;6.726;2023-09-19T15:23:33;18.60;99.90
59007;DHT22;44792;52.760;6.726;2023-09-19T15:26:07;18.60;99.90
59007;DHT22;44792;52.760;6.726;2023-09-19T15:28:37;18.60;99.90
59007;DHT22;44792;52.760;6.726;2023-09-19T15:31:07;18.60;99.90
59007;DHT22;44792;52.760;6.726;2023-09-19T15:33:34;18.60;99.90
59007;DHT22;44792;52.760;6.726;2023-09-19T15:36:07;18.60;99.90
59007;DHT22;44792;52.760;6.726;2023-09-19T15:41:30;18.60;99.90
59007;DHT22;44792;52.760;6.726;2023-09-19T15:43:56;18.60;99.90
59007;DHT22;44792;52.760;6.726;2023-09-19T15:46:22;18.60;99.90
59007;DHT22;44792;52.760;6.726;2023-09-19T15:48:48;18.60;99.90
59007;DHT22;44792;52.760;6.726;2023-09-19T15:51:13;18.60;99.90
59007;DHT22;44792;52.760;6.726;2023-09-19T15:53:50;18.60;99.90
59007;DHT22;44792;52.760;6.726;2023-09-19T15:56:16;18.60;99.90
59007;DHT22;44792;52.760;6.726;2023-09-19T15:58:46;18.60;99.90
59007;DHT22;44792;52.760;6.726;2023-09-19T16:01:12;18.60;99.90
59007;DHT22;44792;52.760;6.726;2023-09-19T16:03:39;18.60;99.90
59007;DHT22;44792;52.760;6.726;2023-09-19T16:06:13;18.60;99.90
59007;DHT22;44792;52.760;6.726;2023-09-19T16:08:40;18.50;99.90
59007;DHT22;44792;52.760;6.726;2023-09-19T16:11:06;18.50;99.90
59007;DHT22;44792;52.760;6.726;2023-09-19T16:13:32;18.50;99.90
59007;DHT22;44792;52.760;6.726;2023-09-19T16:15:58;18.50;99.90
59007;DHT22;44792;52.760;6.726;2023-09-19T16:18:23;18.50;99.90
59007;DHT22;44792;52.760;6.726;2023-09-19T16:20:49;18.50;99.90
59007;DHT22;44792;52.760;6.726;2023-09-19T16:23:15;18.50;99.90
59007;DHT22;44792;52.760;6.726;2023-09-19T16:25:41;18.50;99.90
59007;DHT22;44792;52.760;6.726;2023-09-19T16:28:08;18.50;99.90
59007;DHT22;44792;52.760;6.726;2023-09-19T16:30:33;18.50;99.90